Time;durP1;ratioP1;P1;durP2;ratioP2;P2;SDS_P1;SDS_P2;PMS_P1;PMS_P2;Temp;Humidity;BMP_temperature;BMP_pressure;BME280_temperature;BME280_humidity;BME280_pressure;Samples;Min_cycle;Max_cycle;Signal;HPM_P1;HPM_P2
2022/07/12 10:37:29;;;;;;;2.87;0.78;;;;;;;29.36;30.92;101708.08;1733272;82;21098;-49
2022/07/12 10:40:16;;;;;;;2.02;0.85;;;;;;;29.38;31.17;101707.45;1700795;82;21030;-50
2022/07/12 10:43:08;;;;;;;0.62;0.62;;;;;;;29.39;31.10;101703.77;1697050;84;21105;-50
2022/07/12 10:45:39;;;;;;;1.57;0.60;;;;;;;29.40;31.49;101700.98;1699558;84;21050;-49
2022/07/12 10:48:10;;;;;;;0.72;0.60;;;;;;;29.41;31.01;101699.13;1685120;84;21022;-52
2022/07/12 10:50:48;;;;;;;0.88;0.60;;;;;;;29.42;30.94;101696.34;1700254;84;21073;-52
2022/07/12 10:53:34;;;;;;;1.42;0.82;;;;;;;29.48;31.07;101697.63;1732258;81;21043;-51
2022/07/12 10:56:16;;;;;;;2.77;0.62;;;;;;;29.51;30.44;101702.75;1703506;84;21094;-52
2022/07/12 10:58:55;;;;;;;1.37;0.80;;;;;;;29.53;30.72;101695.42;1736973;81;21031;-49
2022/07/12 11:01:29;;;;;;;1.42;0.60;;;;;;;29.53;30.95;101693.56;1696958;84;21030;-49
2022/07/12 11:04:07;;;;;;;0.75;0.70;;;;;;;29.54;30.74;101691.26;1685379;84;21070;-54
2022/07/12 11:06:41;;;;;;;3.10;0.40;;;;;;;29.55;31.03;101690.77;1720257;82;21023;-48
2022/07/12 11:09:12;;;;;;;1.92;0.53;;;;;;;29.57;29.52;101694.17;1709759;82;21046;-47
2022/07/12 11:11:44;;;;;;;;;;;;;;;29.61;28.46;101688.90;1718451;82;20982;-49
2022/07/12 11:14:13;;;;;;;0.55;0.37;;;;;;;29.66;28.59;101690.67;1715987;82;20109;-49
2022/07/12 11:16:44;;;;;;;0.80;0.40;;;;;;;29.70;28.46;101680.03;1710667;82;21048;-49
2022/07/12 11:19:11;;;;;;;2.25;0.53;;;;;;;29.75;28.67;101688.58;1713212;82;21549;-54
2022/07/12 11:21:38;;;;;;;0.88;0.50;;;;;;;29.81;28.08;101688.04;1714231;83;21018;-52
2022/07/12 11:24:35;;;;;;;0.40;0.40;;;;;;;29.85;28.38;101684.10;1709122;82;21045;-48
2022/07/12 11:27:04;;;;;;;1.37;0.53;;;;;;;29.90;28.54;101684.56;1681213;84;21536;-50
2022/07/12 11:29:32;;;;;;;1.07;0.70;;;;;;;29.95;28.65;101689.02;1659285;85;21579;-49
2022/07/12 11:32:06;;;;;;;3.37;0.60;;;;;;;29.98;28.40;101686.07;1681230;84;21036;-49
2022/07/12 11:34:34;;;;;;;3.42;0.60;;;;;;;30.01;28.85;101685.78;1681492;84;21031;-49
2022/07/12 11:37:02;;;;;;;1.22;0.60;;;;;;;30.03;28.63;101687.84;1681268;84;21099;-51
2022/07/12 11:39:35;;;;;;;1.22;0.50;;;;;;;30.04;28.52;101689.55;1682763;84;21012;-48
2022/07/12 11:42:04;;;;;;;1.72;0.75;;;;;;;30.05;29.09;101684.52;1677338;84;21492;-49
2022/07/12 11:44:51;;;;;;;2.55;0.62;;;;;;;30.08;29.32;101675.36;1684498;84;21007;-48
2022/07/12 11:47:21;;;;;;;2.10;0.50;;;;;;;30.09;29.19;101672.53;1684685;84;21035;-49
2022/07/12 11:49:58;;;;;;;1.47;0.65;;;;;;;30.12;28.56;101672.27;1684443;84;21047;-49
2022/07/12 11:52:29;;;;;;;1.35;0.60;;;;;;;30.14;28.78;101673.47;1684084;84;21051;-49
2022/07/12 11:54:57;;;;;;;1.33;0.60;;;;;;;30.13;28.43;101676.63;1683033;84;21083;-49
2022/07/12 11:57:24;;;;;;;0.80;0.50;;;;;;;30.16;28.47;101672.84;1682341;84;21103;-48
2022/07/12 11:59:51;;;;;;;2.87;0.70;;;;;;;30.19;28.90;101673.41;1683399;85;21031;-49
2022/07/12 12:02:18;;;;;;;0.95;0.50;;;;;;;30.20;28.29;101667.06;1684077;84;21536;-51
2022/07/12 12:04:51;;;;;;;0.60;0.50;;;;;;;30.23;28.16;101677.51;1680209;84;21019;-48
2022/07/12 12:07:19;;;;;;;1.02;0.35;;;;;;;30.25;28.35;101664.80;1672602;84;21055;-49
2022/07/12 12:10:05;;;;;;;0.70;0.50;;;;;;;30.28;28.72;101669.91;1610237;87;21524;-50
2022/07/12 12:12:58;;;;;;;0.95;0.60;;;;;;;30.31;28.98;101666.13;1666210;85;21503;-49
2022/07/12 12:15:31;;;;;;;0.40;0.40;;;;;;;30.33;28.88;101658.78;1626184;87;21084;-50
2022/07/12 12:18:07;;;;;;;0.55;0.50;;;;;;;30.31;28.30;101660.28;1552302;91;21104;-53
2022/07/12 12:20:41;;;;;;;0.75;0.70;;;;;;;30.28;28.66;101664.53;1547954;92;21069;-51
2022/07/12 12:23:19;;;;;;;1.87;0.53;;;;;;;30.25;29.00;101660.77;1608591;88;21105;-49
2022/07/12 12:25:47;;;;;;;1.90;0.50;;;;;;;30.24;29.61;101657.74;1673152;85;21087;-54
2022/07/12 12:28:14;;;;;;;0.93;0.70;;;;;;;30.21;29.68;101655.32;1672402;85;21098;-49
2022/07/12 12:30:56;;;;;;;2.20;0.72;;;;;;;30.18;29.26;101644.88;1672057;84;21034;-48
2022/07/12 12:33:38;;;;;;;1.45;0.53;;;;;;;30.16;30.37;101652.70;1672113;84;21096;-50
2022/07/12 12:36:23;;;;;;;0.55;0.50;;;;;;;30.09;30.15;101648.38;1671742;85;21085;-49
2022/07/12 12:39:00;;;;;;;3.62;0.70;;;;;;;30.03;29.70;101642.21;1667170;85;21530;-48
2022/07/12 12:41:28;;;;;;;0.85;0.60;;;;;;;29.98;30.43;101640.45;1623547;87;21046;-53
2022/07/12 12:44:06;;;;;;;0.70;0.47;;;;;;;29.94;30.27;101643.05;1623778;88;21666;-50
2022/07/12 12:47:30;;;;;;;3.00;0.90;;;;;;;29.90;29.84;101640.28;1623600;86;21036;-49
2022/07/12 12:49:49;;;;;;;;;;;;;;;29.88;29.76;101639.57;1622855;88;21095;-48
2022/07/12 12:52:17;;;;;;;1.40;0.60;;;;;;;29.87;29.98;101643.22;1623007;88;20452;-50
2022/07/12 12:54:44;;;;;;;1.90;0.53;;;;;;;29.83;29.99;101644.96;1623452;88;21562;-49
2022/07/12 12:57:13;;;;;;;0.68;0.50;;;;;;;29.80;29.74;101643.39;1623431;88;21136;-49
2022/07/12 12:59:39;;;;;;;1.67;0.60;;;;;;;29.80;30.30;101646.08;1623715;88;21590;-49
2022/07/12 13:02:07;;;;;;;0.60;0.57;;;;;;;29.79;30.06;101643.05;1623579;88;21056;-48
2022/07/12 13:04:36;;;;;;;1.15;0.70;;;;;;;29.79;30.06;101640.37;1624272;88;21060;-52
2022/07/12 13:07:05;;;;;;;0.53;0.53;;;;;;;29.77;30.64;101639.66;1623622;88;21072;-49
2022/07/12 13:09:32;;;;;;;0.60;0.60;;;;;;;29.77;30.30;101641.48;1624663;87;21052;-52
2022/07/12 13:11:59;;;;;;;0.98;0.50;;;;;;;29.76;29.96;101640.63;1625002;88;21563;-49
2022/07/12 13:14:26;;;;;;;2.17;0.50;;;;;;;29.77;29.77;101645.02;1649324;85;21042;-49
2022/07/12 13:16:56;;;;;;;1.52;0.60;;;;;;;29.76;29.47;101644.65;1678302;83;21031;-49
2022/07/12 13:19:23;;;;;;;1.22;0.50;;;;;;;29.74;29.62;101642.11;1662240;83;21547;-48
2022/07/12 13:21:50;;;;;;;5.53;1.42;;;;;;;29.74;29.72;101639.91;1677862;85;21650;-51
2022/07/12 13:24:18;;;;;;;2.67;0.50;;;;;;;29.74;29.93;101645.28;1678370;83;21070;-48
2022/07/12 13:26:45;;;;;;;1.40;0.57;;;;;;;29.73;29.70;101643.59;1678216;83;21018;-48
2022/07/12 13:29:13;;;;;;;0.50;0.50;;;;;;;29.74;29.97;101637.23;1675502;83;21047;-49
2022/07/12 13:31:41;;;;;;;0.85;0.55;;;;;;;29.76;29.74;101644.65;1675348;83;21058;-49
2022/07/12 13:34:08;;;;;;;0.82;0.45;;;;;;;29.78;29.42;101645.36;1675082;83;21039;-49
2022/07/12 13:36:35;;;;;;;0.57;0.42;;;;;;;29.79;29.41;101645.73;1676339;85;21130;-49
2022/07/12 13:40:10;;;;;;;1.60;0.70;;;;;;;29.80;29.03;101647.42;1722893;81;21023;-52
2022/07/12 13:41:33;;;;;;;1.30;0.50;;;;;;;29.79;28.71;101638.17;1733154;81;21087;-49
2022/07/12 13:44:02;;;;;;;0.50;0.42;;;;;;;29.76;28.65;101640.63;1734822;81;21042;-49
2022/07/12 13:46:28;;;;;;;0.88;0.40;;;;;;;29.75;28.66;101638.95;1700138;84;21074;-56
2022/07/12 13:48:55;;;;;;;1.47;0.47;;;;;;;29.74;28.33;101638.57;1697879;84;20998;-53
2022/07/12 13:51:22;;;;;;;1.55;0.72;;;;;;;29.72;28.33;101641.85;1699603;83;21054;-50
2022/07/12 13:53:49;;;;;;;0.45;0.45;;;;;;;29.71;28.87;101641.02;1700218;83;21013;-48
2022/07/12 13:56:15;;;;;;;1.15;0.50;;;;;;;29.68;29.44;101637.73;1734780;81;21027;-49
2022/07/12 13:58:43;;;;;;;0.80;0.70;;;;;;;29.67;29.04;101640.08;1734132;81;21011;-49
2022/07/12 14:01:10;;;;;;;2.37;0.62;;;;;;;29.62;29.07;101638.28;1731434;81;21050;-49
2022/07/12 14:03:37;;;;;;;0.93;0.50;;;;;;;29.55;30.06;101631.77;1731271;81;21488;-49
2022/07/12 14:06:05;;;;;;;1.52;0.40;;;;;;;29.51;30.01;101633.02;1731693;81;21074;-48
2022/07/12 14:08:32;;;;;;;1.35;0.30;;;;;;;29.47;29.83;101627.05;1732168;81;21020;-48
2022/07/12 14:10:59;;;;;;;1.45;0.33;;;;;;;29.46;29.15;101625.86;1729026;81;21031;-49
2022/07/12 14:13:27;;;;;;;0.65;0.50;;;;;;;29.45;29.60;101626.34;1699566;83;21042;-49
2022/07/12 14:15:56;;;;;;;0.85;0.55;;;;;;;29.44;29.68;101622.46;1696414;84;21058;-50
2022/07/12 14:18:23;;;;;;;0.53;0.50;;;;;;;29.40;29.37;101617.01;1702374;84;20994;-51
2022/07/12 14:20:51;;;;;;;0.53;0.50;;;;;;;29.35;30.14;101618.74;1724081;81;21039;-49
2022/07/12 14:23:18;;;;;;;1.62;0.57;;;;;;;29.31;30.43;101621.81;1732914;81;21531;-48
2022/07/12 14:25:45;;;;;;;1.27;0.60;;;;;;;29.27;30.46;101621.72;1700383;84;21006;-48
2022/07/12 14:28:12;;;;;;;0.62;0.50;;;;;;;29.21;31.18;101624.94;1700907;84;21038;-50
2022/07/12 14:30:39;;;;;;;1.02;0.47;;;;;;;29.12;30.61;101623.03;1698784;84;21649;-48
2022/07/12 14:33:06;;;;;;;0.50;0.50;;;;;;;29.05;30.58;101620.50;1734232;81;21038;-48
2022/07/12 14:35:33;;;;;;;0.82;0.30;;;;;;;28.97;30.80;101615.29;1733903;82;21035;-48
2022/07/12 14:38:00;;;;;;;2.40;0.70;;;;;;;28.89;31.47;101623.13;1734976;81;21535;-48
2022/07/12 14:40:27;;;;;;;0.68;0.40;;;;;;;28.82;31.33;101623.31;1700007;84;20991;-48
2022/07/12 14:42:57;;;;;;;0.78;0.50;;;;;;;28.77;30.86;101620.16;1737613;81;21015;-48
2022/07/12 14:45:24;;;;;;;0.95;0.50;;;;;;;28.74;31.22;101612.87;1731506;81;21074;-47
2022/07/12 14:47:51;;;;;;;0.57;0.57;;;;;;;28.72;31.26;101614.35;1731194;80;21047;-50
2022/07/12 14:50:18;;;;;;;5.03;0.70;;;;;;;28.70;32.07;101617.65;1731705;81;21058;-47
2022/07/12 14:52:45;;;;;;;1.92;0.50;;;;;;;28.68;31.30;101622.28;1731376;81;21066;-48
2022/07/12 14:55:13;;;;;;;1.02;0.50;;;;;;;28.66;31.63;101614.02;1733777;81;21055;-53
2022/07/12 14:57:40;;;;;;;1.35;0.72;;;;;;;28.64;31.36;101620.84;1734703;81;21011;-48
2022/07/12 15:00:10;;;;;;;0.53;0.50;;;;;;;28.63;32.19;101616.45;1733399;81;21022;-48
2022/07/12 15:02:38;;;;;;;2.37;0.95;;;;;;;28.64;32.22;101619.50;1739370;81;21035;-47
2022/07/12 15:05:07;;;;;;;2.20;0.45;;;;;;;28.62;31.48;101614.77;1733663;81;21047;-48
2022/07/12 15:07:34;;;;;;;0.60;0.50;;;;;;;28.60;31.46;101619.41;1732621;82;21011;-51
2022/07/12 15:10:02;;;;;;;1.75;0.78;;;;;;;28.58;31.88;101623.17;1735649;81;21039;-48
2022/07/12 15:12:29;;;;;;;0.70;0.47;;;;;;;28.58;32.32;101621.36;1729708;81;21010;-49
2022/07/12 15:14:57;;;;;;;0.85;0.57;;;;;;;28.60;31.97;101626.09;1731030;81;21004;-48
2022/07/12 15:17:25;;;;;;;0.95;0.60;;;;;;;28.61;31.85;101629.12;1725490;82;20991;-49
2022/07/12 15:19:53;;;;;;;0.62;0.57;;;;;;;28.61;32.38;101621.09;1731070;81;21047;-54
2022/07/12 15:22:20;;;;;;;1.05;0.42;;;;;;;28.62;31.75;101617.45;1731785;81;20980;-49
2022/07/12 15:24:47;;;;;;;0.45;0.45;;;;;;;28.64;31.82;101620.84;1731449;81;21912;-48
2022/07/12 15:27:14;;;;;;;0.40;0.40;;;;;;;28.63;31.83;101621.80;1732451;81;21495;-48
2022/07/12 15:29:42;;;;;;;0.60;0.57;;;;;;;28.66;31.54;101619.37;1732524;81;21026;-50
2022/07/12 15:32:10;;;;;;;0.70;0.57;;;;;;;28.65;31.61;101622.53;1734664;81;21059;-48
2022/07/12 15:34:37;;;;;;;0.33;0.33;;;;;;;28.66;31.81;101613.53;1734865;81;21062;-48
2022/07/12 15:37:04;;;;;;;1.95;0.70;;;;;;;28.66;32.22;101618.89;1732652;81;21014;-52
2022/07/12 15:39:32;;;;;;;0.90;0.40;;;;;;;28.66;32.06;101617.55;1733008;81;21026;-49
2022/07/12 15:41:58;;;;;;;1.75;0.60;;;;;;;28.65;32.38;101614.49;1733657;82;21084;-50
2022/07/12 15:44:27;;;;;;;1.70;0.70;;;;;;;28.64;32.66;101612.81;1700590;84;21014;-51
2022/07/12 15:46:55;;;;;;;1.65;0.57;;;;;;;28.64;32.29;101615.48;1734524;81;21039;-49
2022/07/12 15:49:23;;;;;;;1.92;0.68;;;;;;;28.61;32.73;101613.05;1733019;81;21050;-47
2022/07/12 15:54:36;;;;;;;1.10;0.42;;;;;;;28.53;32.68;101617.31;1727895;81;21027;-48
2022/07/12 15:57:04;;;;;;;0.95;0.50;;;;;;;28.47;32.14;101615.14;1731854;81;21459;-50
2022/07/12 15:59:32;;;;;;;1.17;0.50;;;;;;;28.41;32.19;101616.51;1731673;81;21031;-47
2022/07/12 16:01:59;;;;;;;3.33;0.62;;;;;;;28.35;32.21;101617.50;1733573;81;21097;-48
2022/07/12 16:04:26;;;;;;;3.12;0.57;;;;;;;28.30;32.54;101612.52;1734692;81;21586;-48
2022/07/12 16:06:53;;;;;;;1.02;0.80;;;;;;;28.26;32.48;101610.21;1734365;81;21034;-48
2022/07/12 16:09:20;;;;;;;1.92;0.42;;;;;;;28.24;32.65;101610.34;1730427;81;21070;-48
2022/07/12 16:11:47;;;;;;;0.53;0.53;;;;;;;28.22;33.11;101611.44;1721653;81;21523;-48
2022/07/12 16:14:15;;;;;;;1.90;0.68;;;;;;;28.19;33.18;101605.88;1731578;81;21039;-48
2022/07/12 16:16:42;;;;;;;1.02;0.40;;;;;;;28.19;32.98;101613.91;1733158;82;21535;-48
2022/07/12 16:19:10;;;;;;;1.07;0.60;;;;;;;28.16;33.24;101617.67;1735245;81;21031;-50
2022/07/12 16:21:37;;;;;;;1.32;0.55;;;;;;;28.15;33.65;101615.13;1734422;81;21028;-48
2022/07/12 16:24:05;;;;;;;0.85;0.70;;;;;;;28.12;33.25;101615.37;1732723;81;21475;-48
2022/07/12 16:26:32;;;;;;;1.80;0.50;;;;;;;28.09;33.73;101616.94;1731398;81;21527;-47
2022/07/12 16:28:59;;;;;;;1.90;0.72;;;;;;;28.05;34.25;101613.67;1731911;81;21491;-48
2022/07/12 16:31:26;;;;;;;0.82;0.40;;;;;;;28.03;34.09;101613.43;1731560;81;21050;-48
2022/07/12 16:33:55;;;;;;;1.00;0.60;;;;;;;28.01;34.25;101615.38;1731523;81;21019;-51
2022/07/12 16:36:22;;;;;;;0.88;0.60;;;;;;;27.98;34.24;101619.66;1733205;81;21054;-48
2022/07/12 16:38:49;;;;;;;0.55;0.55;;;;;;;27.95;34.56;101610.49;1734691;81;21074;-48
2022/07/12 16:41:17;;;;;;;1.85;0.60;;;;;;;27.93;34.78;101611.10;1733751;81;21074;-48
2022/07/12 16:43:44;;;;;;;0.88;0.80;;;;;;;27.92;34.86;101614.77;1730392;81;21059;-49
2022/07/12 16:46:11;;;;;;;1.05;0.60;;;;;;;27.90;35.20;101612.70;1734437;81;21011;-50
2022/07/12 16:48:38;;;;;;;1.47;0.75;;;;;;;27.89;35.63;101616.34;1731831;81;21058;-49
2022/07/12 16:51:22;;;;;;;0.80;0.40;;;;;;;27.85;35.83;101610.88;1731146;81;21062;-48
2022/07/12 16:53:56;;;;;;;2.10;0.55;;;;;;;27.84;35.84;101607.85;1731313;81;21488;-49
2022/07/12 16:56:25;;;;;;;1.20;0.60;;;;;;;27.82;35.78;101610.63;1731615;81;21637;-48
2022/07/12 16:58:54;;;;;;;1.52;0.65;;;;;;;27.80;35.83;101609.08;1731299;81;21047;-48
2022/07/12 17:01:21;;;;;;;0.70;0.60;;;;;;;27.79;35.49;101609.55;1731441;81;21027;-47
2022/07/12 17:03:50;;;;;;;0.90;0.53;;;;;;;27.77;35.46;101614.17;1731396;81;21079;-48
2022/07/12 17:06:19;;;;;;;2.10;0.70;;;;;;;27.76;35.13;101615.12;1729139;82;21069;-49
2022/07/12 17:08:46;;;;;;;0.98;0.60;;;;;;;27.75;35.07;101617.94;1734466;81;21023;-52
2022/07/12 17:11:13;;;;;;;0.93;0.50;;;;;;;27.71;35.19;101623.17;1734322;81;21055;-51
2022/07/12 17:13:40;;;;;;;0.70;0.70;;;;;;;27.68;35.47;101618.05;1698491;84;21030;-48
2022/07/12 17:16:08;;;;;;;1.05;0.68;;;;;;;27.65;35.84;101616.49;1697801;84;21459;-48
2022/07/12 17:18:36;;;;;;;0.80;0.60;;;;;;;27.63;35.89;101614.91;1697904;84;20999;-48
2022/07/12 17:21:04;;;;;;;1.05;0.60;;;;;;;27.60;35.79;101617.81;1701090;84;21490;-48
2022/07/12 17:23:31;;;;;;;2.33;0.50;;;;;;;27.56;35.85;101620.36;1728824;81;20971;-48
2022/07/12 17:25:58;;;;;;;4.20;0.70;;;;;;;27.54;36.10;101620.97;1733757;81;21062;-48
2022/07/12 17:28:25;;;;;;;2.35;0.70;;;;;;;27.50;36.18;101615.02;1700867;84;21030;-49
2022/07/12 17:30:53;;;;;;;1.35;0.65;;;;;;;27.49;36.37;101615.15;1733781;81;21574;-48
2022/07/12 17:33:21;;;;;;;1.90;0.70;;;;;;;27.46;36.51;101618.91;1698727;83;21042;-48
2022/07/12 17:35:48;;;;;;;0.88;0.70;;;;;;;27.43;36.70;101621.81;1699804;83;21062;-49
2022/07/12 17:38:15;;;;;;;1.15;0.95;;;;;;;27.42;36.90;101619.27;1736139;82;21038;-48
2022/07/12 17:40:42;;;;;;;2.92;0.80;;;;;;;27.38;36.89;101619.52;1736427;81;21047;-48
2022/07/12 17:43:09;;;;;;;1.35;0.70;;;;;;;27.36;36.88;101619.27;1735758;81;21012;-51
2022/07/12 17:45:36;;;;;;;1.20;0.70;;;;;;;27.34;36.83;101615.39;1733252;81;21011;-48
2022/07/12 17:48:04;;;;;;;0.80;0.80;;;;;;;27.31;36.75;101627.61;1733580;81;21043;-49
2022/07/12 17:50:31;;;;;;;1.05;0.72;;;;;;;27.30;36.72;101629.93;1733010;81;21043;-48
2022/07/12 17:52:58;;;;;;;0.90;0.70;;;;;;;27.28;36.75;101629.20;1735031;81;21004;-48
2022/07/12 17:55:25;;;;;;;1.80;0.70;;;;;;;27.25;36.83;101626.75;1730025;81;21062;-48
2022/07/12 18:00:39;;;;;;;1.62;0.62;;;;;;;27.20;37.03;101632.92;1729970;81;21042;-50
2022/07/12 18:03:07;;;;;;;3.40;0.80;;;;;;;27.19;37.16;101629.90;1736886;81;21078;-48
2022/07/12 18:05:34;;;;;;;1.87;0.60;;;;;;;27.16;37.14;101635.46;1731930;82;21031;-54
2022/07/12 18:08:01;;;;;;;0.82;0.80;;;;;;;27.14;37.22;101640.08;1730197;81;21531;-48
2022/07/12 18:10:28;;;;;;;2.05;0.72;;;;;;;27.12;37.32;101642.02;1733293;81;21059;-48
2022/07/12 18:15:41;;;;;;;2.83;0.85;;;;;;;27.10;37.43;101645.28;1733363;81;21559;-48
2022/07/12 18:18:10;;;;;;;1.10;0.90;;;;;;;27.06;37.57;101642.48;1733284;81;21031;-53
2022/07/12 18:20:37;;;;;;;1.90;1.45;;;;;;;27.05;37.89;101646.14;1712646;83;21026;-48
2022/07/12 18:23:04;;;;;;;4.62;1.80;;;;;;;27.04;38.40;101644.42;1703534;84;21029;-48
2022/07/12 18:25:32;;;;;;;1.40;0.90;;;;;;;27.01;38.75;101643.34;1734849;81;21051;-48
2022/07/12 18:28:00;;;;;;;1.15;1.02;;;;;;;26.99;38.98;101653.29;1747684;80;21062;-48
2022/07/12 18:30:33;;;;;;;0.82;0.82;;;;;;;26.98;39.09;101650.23;1733382;81;20985;-47
2022/07/12 18:33:00;;;;;;;1.50;0.90;;;;;;;26.95;39.03;101650.48;1733313;81;21015;-48
2022/07/12 18:35:27;;;;;;;3.05;2.25;;;;;;;26.95;39.08;101654.97;1733210;81;21023;-51
2022/07/12 18:37:56;;;;;;;3.10;2.50;;;;;;;26.93;39.03;101655.09;1733886;81;21560;-48
2022/07/12 18:40:23;;;;;;;4.37;1.65;;;;;;;26.91;38.97;101649.02;1731830;82;21027;-48
2022/07/12 18:42:49;;;;;;;3.10;1.30;;;;;;;26.91;39.16;101653.02;1698159;84;21015;-49
2022/07/12 18:45:17;;;;;;;4.10;1.10;;;;;;;26.90;39.49;101660.66;1692281;83;21038;-48
2022/07/12 18:47:44;;;;;;;1.87;1.12;;;;;;;26.89;39.71;101661.64;1698174;83;21071;-48
2022/07/12 18:50:12;;;;;;;3.05;0.90;;;;;;;26.87;39.78;101658.23;1735260;81;21524;-48
2022/07/12 18:52:38;;;;;;;3.65;1.32;;;;;;;26.87;39.80;101660.90;1733787;82;21028;-50
2022/07/12 18:55:07;;;;;;;1.32;0.90;;;;;;;26.85;39.80;101663.31;1737501;81;21547;-51
2022/07/12 18:57:34;;;;;;;1.05;0.70;;;;;;;26.85;39.76;101662.84;1736053;81;21523;-50
2022/07/12 19:00:01;;;;;;;2.05;1.07;;;;;;;26.82;39.78;101661.72;1698021;84;21031;-48
2022/07/12 19:02:28;;;;;;;1.07;0.75;;;;;;;26.82;39.81;101666.20;1698054;84;21030;-48
2022/07/12 19:04:55;;;;;;;1.35;0.93;;;;;;;26.80;39.96;101664.98;1697358;83;21478;-48
2022/07/12 19:07:21;;;;;;;0.90;0.70;;;;;;;26.78;39.98;101658.91;1695367;83;21034;-53
2022/07/12 19:09:48;;;;;;;1.67;1.57;;;;;;;26.78;40.09;101658.05;1700713;84;21025;-48
2022/07/12 19:12:16;;;;;;;2.83;2.10;;;;;;;26.76;40.27;101655.50;1700533;84;21081;-48
2022/07/12 19:14:42;;;;;;;3.22;2.33;;;;;;;26.75;40.43;101655.62;1698284;84;21218;-49
2022/07/12 19:17:11;;;;;;;2.50;1.95;;;;;;;26.72;40.50;101651.36;1699210;83;21042;-48
2022/07/12 19:19:38;;;;;;;2.47;1.60;;;;;;;26.71;40.63;101654.13;1698749;84;21467;-48
2022/07/12 19:22:05;;;;;;;2.55;1.52;;;;;;;26.70;40.75;101645.73;1701054;83;21064;-48
2022/07/12 19:24:32;;;;;;;1.60;1.27;;;;;;;26.69;40.85;101643.53;1700500;84;21054;-48
2022/07/12 19:26:59;;;;;;;1.07;1.00;;;;;;;26.68;40.92;101646.33;1698420;84;21521;-49
2022/07/12 19:29:25;;;;;;;1.42;0.95;;;;;;;26.66;41.02;101643.78;1697534;83;21026;-49
2022/07/12 19:31:53;;;;;;;2.42;1.30;;;;;;;26.64;41.16;101640.37;1698040;83;21041;-48
2022/07/12 19:34:19;;;;;;;2.25;1.57;;;;;;;26.63;41.21;101643.99;1697821;84;21009;-49
2022/07/12 19:36:47;;;;;;;2.72;1.70;;;;;;;26.60;41.29;101641.06;1697868;84;21038;-48
2022/07/12 19:39:13;;;;;;;1.60;1.40;;;;;;;26.60;41.34;101646.40;1694969;83;21038;-49
2022/07/12 19:41:40;;;;;;;1.50;1.10;;;;;;;26.58;41.41;101643.50;1700511;84;21081;-49
2022/07/12 19:44:07;;;;;;;1.00;0.85;;;;;;;26.57;41.52;101637.78;1733171;81;21543;-48
2022/07/12 19:46:35;;;;;;;1.98;1.10;;;;;;;26.54;41.58;101646.03;1734478;81;21031;-48
2022/07/12 19:49:02;;;;;;;1.50;0.90;;;;;;;26.53;41.66;101642.98;1735218;82;21507;-49
2022/07/12 19:51:28;;;;;;;2.67;0.88;;;;;;;26.52;41.83;101641.29;1736345;81;21039;-48
2022/07/12 19:53:56;;;;;;;2.35;1.00;;;;;;;26.50;41.99;101637.88;1736077;81;21522;-49
2022/07/12 19:56:23;;;;;;;1.52;0.80;;;;;;;26.49;42.37;101636.16;1734375;81;21535;-48
2022/07/12 19:58:49;;;;;;;4.83;1.32;;;;;;;26.48;42.72;101634.48;1733083;81;21050;-48
2022/07/12 20:01:16;;;;;;;1.15;1.00;;;;;;;26.47;43.09;101630.09;1734227;81;21019;-48
2022/07/12 20:03:43;;;;;;;1.50;1.00;;;;;;;26.45;43.53;101637.36;1733213;81;21027;-48
2022/07/12 20:06:11;;;;;;;0.95;0.90;;;;;;;26.43;43.95;101632.62;1733578;81;20984;-51
2022/07/12 20:08:39;;;;;;;0.80;0.80;;;;;;;26.41;44.15;101631.41;1735127;81;21031;-48
2022/07/12 20:11:07;;;;;;;1.82;0.80;;;;;;;26.40;44.38;101631.49;1733556;81;21042;-48
2022/07/12 20:13:34;;;;;;;0.85;0.85;;;;;;;26.38;44.32;101633.42;1734105;82;21487;-48
2022/07/12 20:16:00;;;;;;;1.60;0.90;;;;;;;26.36;44.22;101624.68;1698060;84;21003;-49
2022/07/12 20:18:28;;;;;;;1.15;0.90;;;;;;;26.35;43.99;101627.00;1698573;83;21026;-48
2022/07/12 20:20:55;;;;;;;2.52;1.00;;;;;;;26.34;43.76;101631.95;1697788;83;21515;-48
2022/07/12 20:23:22;;;;;;;3.67;1.12;;;;;;;26.34;43.39;101633.28;1690906;83;21475;-49
2022/07/12 20:25:51;;;;;;;2.70;1.00;;;;;;;26.36;43.17;101631.35;1697693;84;21069;-48
2022/07/12 20:28:18;;;;;;;1.20;1.10;;;;;;;26.36;43.03;101632.69;1697875;83;21073;-49
2022/07/12 20:30:46;;;;;;;1.55;1.37;;;;;;;26.38;42.91;101625.42;1697931;83;21062;-51
2022/07/12 20:35:58;;;;;;;1.00;0.90;;;;;;;26.38;42.78;101622.75;1697661;83;21554;-48
2022/07/12 20:38:25;;;;;;;1.17;0.80;;;;;;;26.38;42.81;101624.08;1697784;83;21037;-50
2022/07/12 20:41:03;;;;;;;1.00;0.90;;;;;;;26.37;42.86;101625.06;1697045;84;21085;-48
2022/07/12 20:43:21;;;;;;;1.50;0.88;;;;;;;26.36;42.91;101619.34;1697769;84;21541;-49
2022/07/12 20:45:48;;;;;;;1.32;1.10;;;;;;;26.36;42.93;101627.34;1699593;84;21486;-49
2022/07/12 20:48:14;;;;;;;3.30;1.25;;;;;;;26.35;42.93;101628.33;1734733;81;21015;-49
2022/07/12 20:50:42;;;;;;;3.25;1.00;;;;;;;26.35;42.92;101629.66;1727404;81;21015;-50
2022/07/12 20:53:08;;;;;;;1.90;1.15;;;;;;;26.34;42.97;101631.95;1730930;81;21491;-50
2022/07/12 20:55:36;;;;;;;3.27;0.90;;;;;;;26.32;43.07;101633.87;1731935;81;21031;-51
2022/07/12 20:58:03;;;;;;;2.98;1.05;;;;;;;26.30;43.17;101627.33;1733351;81;21058;-49
2022/07/12 21:00:30;;;;;;;2.85;1.10;;;;;;;26.29;43.21;101624.78;1700611;84;21483;-50
2022/07/12 21:02:58;;;;;;;1.62;0.93;;;;;;;26.27;43.24;101628.05;1749839;80;21042;-49
2022/07/12 21:05:24;;;;;;;1.32;1.00;;;;;;;26.24;43.26;101627.78;1732026;81;20987;-50
2022/07/12 21:07:51;;;;;;;2.15;1.10;;;;;;;26.21;43.29;101628.50;1730506;81;21007;-51
2022/07/12 21:10:18;;;;;;;4.05;0.88;;;;;;;26.18;43.14;101623.37;1734119;82;21559;-49
2022/07/12 21:12:44;;;;;;;1.10;1.00;;;;;;;26.15;43.04;101627.11;1727984;81;21498;-53
2022/07/12 21:15:11;;;;;;;1.77;1.10;;;;;;;26.12;43.01;101623.34;1676510;84;21506;-49
2022/07/12 21:17:44;;;;;;;2.33;0.98;;;;;;;26.10;42.87;101627.08;1747502;80;20998;-49
2022/07/12 21:20:12;;;;;;;0.93;0.90;;;;;;;26.08;42.71;101623.20;1731236;81;21019;-53
2022/07/12 21:22:39;;;;;;;3.60;1.00;;;;;;;26.05;42.59;101626.04;1732537;81;21019;-48
2022/07/12 21:25:07;;;;;;;1.35;1.00;;;;;;;26.03;42.57;101623.14;1700387;84;21022;-49
2022/07/12 21:27:34;;;;;;;1.12;0.90;;;;;;;26.01;42.46;101621.06;1735199;81;22505;-48
2022/07/12 21:30:01;;;;;;;1.62;0.85;;;;;;;25.98;42.38;101621.27;1732771;81;21046;-54
2022/07/12 21:32:28;;;;;;;1.27;1.07;;;;;;;25.96;42.36;101621.39;1699014;84;21057;-49
2022/07/12 21:34:56;;;;;;;2.12;1.00;;;;;;;25.95;42.34;101621.48;1699548;84;21011;-51
2022/07/12 21:37:23;;;;;;;1.55;1.02;;;;;;;25.91;42.36;101618.66;1734559;81;21508;-51
2022/07/12 21:39:50;;;;;;;1.10;1.00;;;;;;;25.90;42.43;101623.64;1726199;81;21070;-49
2022/07/12 21:42:17;;;;;;;1.57;1.25;;;;;;;25.88;42.49;101620.23;1731135;81;21055;-49
2022/07/12 21:44:43;;;;;;;4.03;1.00;;;;;;;25.86;42.55;101618.16;1698313;84;21073;-53
2022/07/12 21:47:11;;;;;;;3.58;1.02;;;;;;;25.83;42.60;101617.89;1697285;84;21050;-51
2022/07/12 21:49:37;;;;;;;1.95;0.90;;;;;;;25.80;42.72;101615.46;1733572;82;20999;-49
2022/07/12 21:52:05;;;;;;;2.72;1.45;;;;;;;25.77;42.85;101621.86;1734387;81;21503;-54
2022/07/12 21:54:32;;;;;;;2.25;1.37;;;;;;;25.74;43.00;101619.39;1727925;81;21027;-48
2022/07/12 21:56:59;;;;;;;2.15;1.40;;;;;;;25.71;43.15;101616.97;1732288;81;21067;-48
2022/07/12 21:59:26;;;;;;;2.55;1.15;;;;;;;25.71;43.27;101622.30;1731480;81;21043;-49
2022/07/12 22:01:53;;;;;;;2.65;1.25;;;;;;;25.68;43.30;101613.64;1733148;81;21030;-49
2022/07/12 22:04:19;;;;;;;1.67;1.07;;;;;;;25.66;43.15;101611.09;1734592;81;21488;-48
2022/07/12 22:06:46;;;;;;;1.10;1.00;;;;;;;25.63;42.97;101613.99;1733892;81;21094;-48
2022/07/12 22:09:13;;;;;;;4.08;1.05;;;;;;;25.61;42.72;101609.25;1731662;81;21031;-51
2022/07/12 22:11:40;;;;;;;5.45;1.10;;;;;;;25.60;42.57;101614.67;1734036;81;20968;-49
2022/07/12 22:14:08;;;;;;;1.50;1.10;;;;;;;25.58;42.42;101607.27;1731922;82;21033;-52
2022/07/12 22:16:35;;;;;;;1.85;0.90;;;;;;;25.56;42.24;101607.38;1736125;81;21031;-50
2022/07/12 22:19:01;;;;;;;5.20;0.98;;;;;;;25.54;42.10;101606.64;1700083;84;21049;-51
2022/07/12 22:21:28;;;;;;;2.27;1.20;;;;;;;25.53;42.07;101607.58;1732608;81;20999;-50